createdAt,value
2023-11-20T00:01:18.122Z,6.10
2023-11-20T00:04:27.843Z,5.60
2023-11-20T00:05:52.216Z,5.50
2023-11-20T00:07:23.099Z,4.80
2023-11-20T00:09:44.403Z,4.90
2023-11-20T00:11:35.970Z,5.90
2023-11-20T00:13:13.355Z,4.90
2023-11-20T00:15:32.812Z,5.10
2023-11-20T00:18:09.828Z,4.70
2023-11-20T00:19:07.852Z,4.60
2023-11-20T00:20:16.741Z,4.90
2023-11-20T00:22:31.157Z,4.60
2023-11-20T00:25:52.789Z,4.30
2023-11-20T00:37:55.357Z,3.10
2023-11-20T00:39:06.348Z,3.60
2023-11-20T00:52:53.052Z,3.80
2023-11-20T00:55:44.143Z,3.70
2023-11-20T01:21:13.733Z,4.10
2023-11-20T01:24:18.964Z,3.90
2023-11-20T01:29:19.092Z,3.30
2023-11-20T01:31:27.080Z,3.50
2023-11-20T01:33:01.389Z,3.00
2023-11-20T01:34:29.988Z,3.20
2023-11-20T01:36:20.662Z,3.10
2023-11-20T01:38:58.251Z,2.50
2023-11-20T01:42:19.742Z,2.60
2023-11-20T01:43:50.462Z,2.50
2023-11-20T01:48:19.746Z,2.40
2023-11-20T01:55:23.096Z,2.80
2023-11-20T01:56:51.912Z,2.80
2023-11-20T01:58:24.038Z,3.00
2023-11-20T02:01:38.918Z,3.00
2023-11-20T02:05:09.294Z,3.50
2023-11-20T02:07:44.913Z,3.20
2023-11-20T02:11:26.491Z,3.20
2023-11-20T02:13:34.485Z,3.00
2023-11-20T02:17:44.989Z,2.70
2023-11-20T02:20:04.409Z,2.60
2023-11-20T02:21:34.412Z,2.90
2023-11-20T02:23:25.714Z,3.10
2023-11-20T02:26:15.094Z,2.60
2023-11-20T02:32:59.967Z,2.90
2023-11-20T02:34:49.233Z,2.50
2023-11-20T02:39:03.508Z,2.70
2023-11-20T02:41:24.282Z,2.40
2023-11-20T02:42:56.861Z,3.20
2023-11-20T02:46:17.451Z,2.70
2023-11-20T02:47:51.967Z,3.10
2023-11-20T02:50:54.939Z,2.50
2023-11-20T02:55:10.168Z,2.80
2023-11-20T02:57:44.250Z,2.70
2023-11-20T03:01:56.001Z,2.90
2023-11-20T03:08:53.771Z,2.70
2023-11-20T03:11:49.452Z,2.50
2023-11-20T03:15:17.610Z,3.00
2023-11-20T03:18:03.765Z,2.60
2023-11-20T03:21:11.473Z,2.60
2023-11-20T03:27:30.966Z,2.80
2023-11-20T03:39:25.557Z,3.20
2023-11-20T03:40:54.338Z,2.80
2023-11-20T03:47:49.678Z,3.10
2023-11-20T03:52:25.600Z,3.00
2023-11-20T03:54:27.516Z,3.20
2023-11-20T03:57:45.666Z,3.80
2023-11-20T04:00:24.104Z,3.40
2023-11-20T04:02:44.298Z,3.10
2023-11-20T04:04:35.608Z,3.60
2023-11-20T04:09:26.113Z,2.60
2023-11-20T04:14:48.135Z,2.90
2023-11-20T04:20:34.635Z,3.20
2023-11-20T04:24:53.447Z,3.90
2023-11-20T04:26:24.553Z,3.80
2023-11-20T04:31:12.863Z,3.40
2023-11-20T04:35:02.382Z,3.70
2023-11-20T04:38:48.033Z,3.30
2023-11-20T04:47:23.935Z,3.60
2023-11-20T04:50:04.351Z,3.70
2023-11-20T04:53:03.406Z,3.30
2023-11-20T04:55:05.219Z,4.00
2023-11-20T05:18:19.757Z,4.90
2023-11-20T05:19:49.121Z,4.60
2023-11-20T05:29:30.049Z,5.70
2023-11-20T05:31:29.338Z,6.50
2023-11-20T05:33:17.054Z,5.80
2023-11-20T05:42:15.957Z,6.80
2023-11-20T05:51:26.861Z,5.10
2023-11-20T05:55:29.769Z,4.90
2023-11-20T06:00:24.896Z,5.10
2023-11-20T06:06:19.631Z,4.90
2023-11-20T06:08:24.831Z,5.90
2023-11-20T06:14:14.678Z,4.90
2023-11-20T06:19:24.156Z,4.80
2023-11-20T06:22:34.658Z,4.50
2023-11-20T06:24:01.823Z,5.00
2023-11-20T06:26:12.200Z,4.50
2023-11-20T06:31:13.948Z,4.50
2023-11-20T06:39:47.116Z,5.60
2023-11-20T06:47:12.018Z,6.80
2023-11-20T06:49:44.251Z,5.90
2023-11-20T06:54:49.775Z,6.30
2023-11-20T06:59:15.163Z,5.80
2023-11-20T07:02:23.905Z,5.90
2023-11-20T07:03:56.397Z,5.20
2023-11-20T07:07:16.824Z,6.20
2023-11-20T07:11:48.206Z,5.00
2023-11-20T07:14:16.223Z,5.00
2023-11-20T07:17:05.440Z,5.90
2023-11-20T07:19:09.221Z,6.00
2023-11-20T07:20:38.203Z,6.40
2023-11-20T07:28:42.645Z,5.60
2023-11-20T07:42:03.605Z,5.20
2023-11-20T07:44:39.207Z,5.20
2023-11-20T07:46:35.780Z,5.60
2023-11-20T07:50:02.788Z,6.00
2023-11-20T07:53:21.471Z,5.00
2023-11-20T07:55:40.705Z,5.60
2023-11-20T08:00:38.979Z,4.90
2023-11-20T08:02:07.326Z,4.90
2023-11-20T08:04:56.893Z,5.00
2023-11-20T08:07:01.853Z,5.50
2023-11-20T08:10:30.229Z,5.80
2023-11-20T08:16:28.811Z,4.30
2023-11-20T08:18:30.190Z,4.60
2023-11-20T08:20:28.933Z,4.40
2023-11-20T08:22:33.004Z,5.90
2023-11-20T08:29:03.603Z,4.20
2023-11-20T08:30:32.736Z,4.60
2023-11-20T08:32:02.644Z,4.10
2023-11-20T08:33:32.476Z,4.60
2023-11-20T08:36:43.124Z,4.60
2023-11-20T08:39:01.982Z,4.90
2023-11-20T08:46:06.078Z,5.00
2023-11-20T08:53:34.101Z,4.70
2023-11-20T08:59:44.782Z,4.50
2023-11-20T09:01:13.128Z,4.60
2023-11-20T09:13:37.406Z,5.00
2023-11-20T09:20:05.356Z,4.50
2023-11-20T09:22:58.401Z,4.40
2023-11-20T09:27:11.510Z,5.20
2023-11-20T09:38:34.719Z,5.40
2023-11-20T09:40:24.241Z,5.40
2023-11-20T09:43:38.204Z,5.10
2023-11-20T09:49:36.760Z,4.70
2023-11-20T09:51:13.164Z,5.90
2023-11-20T09:59:21.224Z,5.00
2023-11-20T10:01:01.539Z,5.80
2023-11-20T10:01:57.134Z,5.50
2023-11-20T10:02:57.987Z,5.50
2023-11-20T10:06:41.574Z,5.10
2023-11-20T10:09:38.848Z,6.50
2023-11-20T10:12:36.744Z,6.10
2023-11-20T10:15:27.481Z,6.00
2023-11-20T10:18:26.944Z,6.00
2023-11-20T10:22:00.768Z,5.80
2023-11-20T10:25:00.867Z,6.10
2023-11-20T10:26:33.852Z,6.00
2023-11-20T10:29:44.466Z,5.20
2023-11-20T10:31:40.727Z,5.60
2023-11-20T10:33:10.430Z,5.50
2023-11-20T10:34:40.598Z,4.90
2023-11-20T10:36:46.425Z,5.50
2023-11-20T10:39:05.820Z,5.30
2023-11-20T10:43:27.087Z,6.10
2023-11-20T10:47:22.097Z,5.30
2023-11-20T10:50:56.625Z,5.10
2023-11-20T10:54:06.841Z,5.90
2023-11-20T10:56:38.664Z,6.40
2023-11-20T10:58:23.031Z,6.40
2023-11-20T11:03:44.013Z,5.00
2023-11-20T11:08:01.955Z,4.80
2023-11-20T11:10:02.482Z,4.80
2023-11-20T11:11:48.733Z,5.10
2023-11-20T11:13:19.742Z,6.40
2023-11-20T11:15:56.941Z,5.00
2023-11-20T11:20:25.082Z,5.00
2023-11-20T11:21:52.471Z,5.00
2023-11-20T11:24:23.612Z,5.20
2023-11-20T11:27:52.296Z,5.10
2023-11-20T11:31:50.704Z,4.80
2023-11-20T11:33:19.678Z,4.80
2023-11-20T11:36:33.487Z,5.20
2023-11-20T11:43:33.028Z,5.20
2023-11-20T11:48:29.623Z,5.30
2023-11-20T11:51:18.024Z,4.60
2023-11-20T11:54:34.132Z,6.10
2023-11-20T12:03:25.516Z,6.00
2023-11-20T12:04:59.204Z,5.20
2023-11-20T12:07:50.585Z,5.00
2023-11-20T12:12:29.957Z,5.40
2023-11-20T12:16:09.367Z,5.00
2023-11-20T12:20:16.149Z,5.40
2023-11-20T12:21:45.206Z,5.10
2023-11-20T12:31:01.325Z,5.40
2023-11-20T12:33:05.077Z,5.20
2023-11-20T12:36:27.893Z,5.40
2023-11-20T12:39:01.080Z,6.40
2023-11-20T12:41:33.998Z,5.00
2023-11-20T12:48:21.519Z,5.10
2023-11-20T12:57:46.342Z,5.20
2023-11-20T12:59:39.226Z,6.90
2023-11-20T13:05:10.780Z,6.50
2023-11-20T13:08:01.969Z,7.10
2023-11-20T13:12:17.258Z,6.00
2023-11-20T13:14:07.033Z,5.20
2023-11-20T13:16:08.926Z,5.60
2023-11-20T13:26:39.125Z,5.70
2023-11-20T13:28:08.069Z,6.80
2023-11-20T13:30:10.119Z,5.40
2023-11-20T13:31:39.991Z,5.70
2023-11-20T13:35:16.078Z,6.10
2023-11-20T13:41:37.355Z,4.90
2023-11-20T13:45:30.163Z,5.20
2023-11-20T13:48:40.321Z,5.70
2023-11-20T13:52:31.851Z,8.10
2023-11-20T13:56:13.300Z,6.10
2023-11-20T13:59:32.497Z,7.00
2023-11-20T14:06:50.586Z,7.70
2023-11-20T14:10:49.080Z,10.30
2023-11-20T14:14:27.167Z,7.00
2023-11-20T14:18:49.495Z,12.50
2023-11-20T14:20:14.398Z,11.30
2023-11-20T14:23:43.040Z,8.50
2023-11-20T14:26:29.864Z,7.90
2023-11-20T14:28:51.030Z,7.70
2023-11-20T14:31:01.466Z,8.20
2023-11-20T14:34:36.339Z,8.40
2023-11-20T14:41:13.872Z,6.60
2023-11-20T14:47:03.785Z,4.90
2023-11-20T14:49:21.001Z,5.50
2023-11-20T14:53:18.041Z,5.10
2023-11-20T14:54:48.904Z,7.60
2023-11-20T14:57:36.227Z,6.50
2023-11-20T15:00:16.659Z,4.80
2023-11-20T15:03:05.172Z,4.80
2023-11-20T15:08:30.556Z,5.30
2023-11-20T15:10:02.815Z,5.70
2023-11-20T15:11:35.812Z,4.00
2023-11-20T15:14:04.761Z,4.80
2023-11-20T15:16:08.792Z,4.70
2023-11-20T15:19:19.889Z,4.40
2023-11-20T15:21:10.720Z,4.50
2023-11-20T15:23:11.853Z,5.10
2023-11-20T15:24:43.840Z,6.70
2023-11-20T15:26:13.154Z,5.20
2023-11-20T15:27:48.498Z,5.60
2023-11-20T15:29:37.440Z,6.00
2023-11-20T15:31:06.977Z,5.50
2023-11-20T15:35:26.329Z,8.30
2023-11-20T15:38:25.536Z,8.90
2023-11-20T15:40:44.673Z,9.00
2023-11-20T15:43:34.245Z,8.20
2023-11-20T15:46:45.338Z,8.70
2023-11-20T15:48:14.265Z,9.90
2023-11-20T15:50:09.991Z,10.80
2023-11-20T15:54:29.174Z,9.90
2023-11-20T15:58:14.460Z,9.00
2023-11-20T16:01:05.669Z,7.50
2023-11-20T16:02:57.877Z,6.70
2023-11-20T16:05:57.117Z,7.20
2023-11-20T16:11:54.709Z,6.30
2023-11-20T16:13:56.432Z,6.50
2023-11-20T16:16:13.850Z,5.60
2023-11-20T16:20:32.913Z,6.80
2023-11-20T16:22:08.767Z,5.80
2023-11-20T16:24:35.425Z,5.40
2023-11-20T16:26:54.028Z,7.10
2023-11-20T16:30:37.413Z,7.60
2023-11-20T16:31:16.362Z,7.70
2023-11-20T16:32:16.305Z,7.20
2023-11-20T16:33:16.267Z,7.40
2023-11-20T16:34:52.001Z,6.60
2023-11-20T16:37:47.319Z,7.40
2023-11-20T16:41:48.756Z,8.10
2023-11-20T16:48:39.885Z,7.10
2023-11-20T16:55:41.905Z,8.30
2023-11-20T17:02:12.910Z,8.50
2023-11-20T17:05:09.541Z,9.00
2023-11-20T17:06:42.921Z,8.40
2023-11-20T17:12:22.280Z,8.90
2023-11-20T17:15:45.183Z,8.40
2023-11-20T17:18:04.263Z,9.80
2023-11-20T17:20:48.658Z,9.90
2023-11-20T17:25:45.816Z,11.50
2023-11-20T17:28:14.387Z,10.20
2023-11-20T17:35:21.048Z,11.70
2023-11-20T17:44:41.632Z,11.90
2023-11-20T17:49:41.856Z,11.60
2023-11-20T17:53:15.691Z,11.40
2023-11-20T17:58:29.519Z,12.60
2023-11-20T18:02:01.226Z,16.50
2023-11-20T18:03:50.375Z,17.20
2023-11-20T18:05:51.317Z,20.50
2023-11-20T18:11:35.390Z,24.00
2023-11-20T18:13:02.351Z,21.30
2023-11-20T18:21:12.094Z,22.70
2023-11-20T18:26:42.511Z,16.80
2023-11-20T18:30:40.425Z,17.90
2023-11-20T18:32:10.901Z,17.00
2023-11-20T18:34:29.993Z,17.60
2023-11-20T18:38:28.864Z,15.20
2023-11-20T18:43:57.144Z,14.60
2023-11-20T18:46:05.466Z,15.20
2023-11-20T18:48:05.438Z,13.00
2023-11-20T18:51:42.887Z,14.30
2023-11-20T18:55:44.360Z,14.10
2023-11-20T18:58:57.522Z,12.00
2023-11-20T19:04:25.867Z,14.00
2023-11-20T19:08:59.478Z,15.10
2023-11-20T19:16:39.254Z,14.70
2023-11-20T19:19:10.042Z,14.60
2023-11-20T19:23:38.686Z,15.60
2023-11-20T19:27:56.407Z,18.40
2023-11-20T19:30:58.579Z,16.50
2023-11-20T19:35:55.484Z,17.70
2023-11-20T19:42:50.131Z,18.80
2023-11-20T19:44:49.331Z,15.40
2023-11-20T19:54:20.336Z,17.30
2023-11-20T19:59:24.383Z,17.20
2023-11-20T20:02:18.250Z,18.40
2023-11-20T20:04:21.015Z,19.40
2023-11-20T20:06:13.146Z,18.00
2023-11-20T20:08:27.065Z,18.80
2023-11-20T20:16:01.469Z,17.10
2023-11-20T20:19:52.155Z,19.60
2023-11-20T20:22:30.713Z,23.30
2023-11-20T20:24:28.801Z,19.50
2023-11-20T20:26:18.488Z,19.80
2023-11-20T20:32:24.546Z,18.80
2023-11-20T20:34:54.341Z,18.40
2023-11-20T20:37:32.032Z,19.10
2023-11-20T20:40:15.223Z,19.20
2023-11-20T20:44:41.211Z,18.30
2023-11-20T20:46:12.277Z,16.20
2023-11-20T20:50:46.994Z,19.50
2023-11-20T20:53:59.697Z,18.20
2023-11-20T20:58:45.357Z,17.10
2023-11-20T21:03:53.815Z,20.10
2023-11-20T21:08:24.291Z,19.30
2023-11-20T21:09:54.319Z,19.10
2023-11-20T21:13:49.842Z,20.60
2023-11-20T21:16:11.821Z,20.10
2023-11-20T21:19:01.372Z,18.10
2023-11-20T21:20:32.266Z,21.20
2023-11-20T21:23:34.911Z,18.60
2023-11-20T21:25:01.946Z,18.90
2023-11-20T21:26:32.389Z,20.50
2023-11-20T21:30:13.402Z,19.60
2023-11-20T21:32:04.660Z,18.00
2023-11-20T21:36:16.214Z,22.00
2023-11-20T21:42:21.887Z,23.10
2023-11-20T21:43:54.120Z,22.30
2023-11-20T21:45:51.824Z,25.00
2023-11-20T21:48:13.381Z,21.30
2023-11-20T21:57:35.492Z,22.50
2023-11-20T22:00:56.211Z,26.80
2023-11-20T22:04:02.442Z,22.10
2023-11-20T22:06:33.887Z,21.80
2023-11-20T22:11:57.773Z,23.00
2023-11-20T22:15:00.256Z,25.00
2023-11-20T22:17:05.247Z,22.20
2023-11-20T22:19:07.051Z,21.70
2023-11-20T22:21:05.229Z,24.40
2023-11-20T22:22:34.076Z,22.50
2023-11-20T22:24:59.464Z,24.40
2023-11-20T22:29:17.885Z,24.70
2023-11-20T22:31:19.322Z,21.90
2023-11-20T22:36:03.387Z,22.90
2023-11-20T22:40:12.752Z,23.40
2023-11-20T22:42:31.786Z,24.40
2023-11-20T22:45:59.821Z,25.60
2023-11-20T22:47:30.245Z,22.80
2023-11-20T22:50:54.934Z,26.30
2023-11-20T22:52:23.904Z,23.30
2023-11-20T22:54:54.800Z,25.60
2023-11-20T22:56:22.509Z,29.20
2023-11-20T22:57:51.765Z,28.70
2023-11-20T23:00:18.732Z,27.90
2023-11-20T23:03:42.580Z,29.10
2023-11-20T23:07:58.712Z,28.90
2023-11-20T23:13:38.969Z,28.40
2023-11-20T23:16:42.953Z,24.20
2023-11-20T23:33:05.760Z,31.30
2023-11-20T23:34:36.966Z,25.80
2023-11-20T23:36:40.124Z,26.90
2023-11-20T23:38:10.707Z,26.30
2023-11-20T23:40:41.037Z,26.70
2023-11-20T23:45:28.885Z,28.30
2023-11-20T23:49:44.143Z,33.20
2023-11-20T23:51:13.045Z,28.10
2023-11-20T23:53:48.753Z,25.70
